sensor_id;sensor_type;location;lat;lon;timestamp;P1;P2;P0
49686;PMS5003;36064;38.180;-122.272;2023-07-29T00:00:00;6.4;5.0;
49686;PMS5003;36064;38.180;-122.272;2023-07-29T00:05:01;4.8;5.0;
49686;PMS5003;36064;38.180;-122.272;2023-07-29T00:10:00;5.0;4.4;
49686;PMS5003;36064;38.180;-122.272;2023-07-29T00:15:00;4.6;4.2;
49686;PMS5003;36064;38.180;-122.272;2023-07-29T00:20:00;4.2;3.8;
49686;PMS5003;36064;38.180;-122.272;2023-07-29T00:25:00;7.0;7.0;
49686;PMS5003;36064;38.180;-122.272;2023-07-29T00:30:00;4.0;4.0;
49686;PMS5003;36064;38.180;-122.272;2023-07-29T00:35:00;5.8;5.4;
49686;PMS5003;36064;38.180;-122.272;2023-07-29T00:40:00;5.2;4.0;
49686;PMS5003;36064;38.180;-122.272;2023-07-29T00:45:00;5.0;3.6;
49686;PMS5003;36064;38.180;-122.272;2023-07-29T00:50:00;4.2;4.0;
49686;PMS5003;36064;38.180;-122.272;2023-07-29T00:55:00;6.2;5.6;
49686;PMS5003;36064;38.180;-122.272;2023-07-29T01:00:00;3.8;3.4;
49686;PMS5003;36064;38.180;-122.272;2023-07-29T01:05:00;5.8;4.6;
49686;PMS5003;36064;38.180;-122.272;2023-07-29T01:10:01;5.4;5.2;
49686;PMS5003;36064;38.180;-122.272;2023-07-29T01:15:03;5.6;4.8;
49686;PMS5003;36064;38.180;-122.272;2023-07-29T01:20:01;5.2;4.8;
49686;PMS5003;36064;38.180;-122.272;2023-07-29T01:25:00;4.6;4.0;
49686;PMS5003;36064;38.180;-122.272;2023-07-29T01:30:00;4.4;3.4;
49686;PMS5003;36064;38.180;-122.272;2023-07-29T01:35:03;4.4;4.4;
49686;PMS5003;36064;38.180;-122.272;2023-07-29T01:40:00;3.4;3.4;
49686;PMS5003;36064;38.180;-122.272;2023-07-29T01:45:05;3.6;3.6;
49686;PMS5003;36064;38.180;-122.272;2023-07-29T01:50:01;5.2;5.2;
49686;PMS5003;36064;38.180;-122.272;2023-07-29T01:55:00;4.6;4.6;
49686;PMS5003;36064;38.180;-122.272;2023-07-29T02:00:00;4.2;3.4;
49686;PMS5003;36064;38.180;-122.272;2023-07-29T02:05:00;4.0;3.6;
49686;PMS5003;36064;38.180;-122.272;2023-07-29T02:10:00;4.4;3.8;
49686;PMS5003;36064;38.180;-122.272;2023-07-29T02:15:00;5.8;4.8;
49686;PMS5003;36064;38.180;-122.272;2023-07-29T02:20:00;6.4;5.2;
49686;PMS5003;36064;38.180;-122.272;2023-07-29T02:25:00;7.0;5.2;
49686;PMS5003;36064;38.180;-122.272;2023-07-29T02:30:00;5.6;4.8;
49686;PMS5003;36064;38.180;-122.272;2023-07-29T02:35:00;4.2;3.8;
49686;PMS5003;36064;38.180;-122.272;2023-07-29T02:40:00;6.4;6.0;
49686;PMS5003;36064;38.180;-122.272;2023-07-29T02:45:00;5.6;4.4;
49686;PMS5003;36064;38.180;-122.272;2023-07-29T02:50:00;6.0;5.2;
49686;PMS5003;36064;38.180;-122.272;2023-07-29T02:55:00;6.2;5.0;
49686;PMS5003;36064;38.180;-122.272;2023-07-29T03:00:00;7.0;4.6;
49686;PMS5003;36064;38.180;-122.272;2023-07-29T03:05:00;7.0;5.4;
49686;PMS5003;36064;38.180;-122.272;2023-07-29T03:10:00;4.0;4.0;
49686;PMS5003;36064;38.180;-122.272;2023-07-29T03:15:00;7.0;6.2;
49686;PMS5003;36064;38.180;-122.272;2023-07-29T03:20:00;7.4;6.6;
49686;PMS5003;36064;38.180;-122.272;2023-07-29T03:25:00;4.8;4.8;
49686;PMS5003;36064;38.180;-122.272;2023-07-29T03:30:00;6.8;6.2;
49686;PMS5003;36064;38.180;-122.272;2023-07-29T03:35:00;5.2;5.2;
49686;PMS5003;36064;38.180;-122.272;2023-07-29T03:40:00;6.2;4.2;
49686;PMS5003;36064;38.180;-122.272;2023-07-29T03:45:00;6.2;4.2;
49686;PMS5003;36064;38.180;-122.272;2023-07-29T03:50:02;6.8;4.8;
49686;PMS5003;36064;38.180;-122.272;2023-07-29T03:55:00;8.2;4.6;
49686;PMS5003;36064;38.180;-122.272;2023-07-29T04:00:00;6.6;3.6;
49686;PMS5003;36064;38.180;-122.272;2023-07-29T04:05:00;4.6;3.2;
49686;PMS5003;36064;38.180;-122.272;2023-07-29T04:10:00;7.4;6.4;
49686;PMS5003;36064;38.180;-122.272;2023-07-29T04:15:00;8.0;7.6;
49686;PMS5003;36064;38.180;-122.272;2023-07-29T04:20:01;7.0;5.0;
49686;PMS5003;36064;38.180;-122.272;2023-07-29T04:25:00;7.4;4.8;
49686;PMS5003;36064;38.180;-122.272;2023-07-29T04:30:00;7.4;6.6;
49686;PMS5003;36064;38.180;-122.272;2023-07-29T04:35:00;6.2;6.0;
49686;PMS5003;36064;38.180;-122.272;2023-07-29T04:40:00;10.2;6.4;
49686;PMS5003;36064;38.180;-122.272;2023-07-29T04:45:00;10.6;5.2;
49686;PMS5003;36064;38.180;-122.272;2023-07-29T04:50:00;5.4;3.8;
49686;PMS5003;36064;38.180;-122.272;2023-07-29T04:55:00;5.6;4.0;
49686;PMS5003;36064;38.180;-122.272;2023-07-29T05:00:00;8.0;6.4;
49686;PMS5003;36064;38.180;-122.272;2023-07-29T05:05:00;6.0;5.0;
49686;PMS5003;36064;38.180;-122.272;2023-07-29T05:10:00;6.2;4.6;
49686;PMS5003;36064;38.180;-122.272;2023-07-29T05:15:00;6.8;5.0;
49686;PMS5003;36064;38.180;-122.272;2023-07-29T05:20:01;2.4;1.8;
49686;PMS5003;36064;38.180;-122.272;2023-07-29T05:25:00;5.0;4.0;
49686;PMS5003;36064;38.180;-122.272;2023-07-29T05:30:00;4.0;3.6;
49686;PMS5003;36064;38.180;-122.272;2023-07-29T05:35:00;4.4;3.6;
49686;PMS5003;36064;38.180;-122.272;2023-07-29T05:40:00;5.0;3.4;
49686;PMS5003;36064;38.180;-122.272;2023-07-29T05:45:00;5.4;4.8;
49686;PMS5003;36064;38.180;-122.272;2023-07-29T05:50:00;4.8;4.0;
49686;PMS5003;36064;38.180;-122.272;2023-07-29T05:55:00;7.8;5.4;
49686;PMS5003;36064;38.180;-122.272;2023-07-29T06:00:00;4.2;4.0;
49686;PMS5003;36064;38.180;-122.272;2023-07-29T06:05:00;4.2;3.2;
49686;PMS5003;36064;38.180;-122.272;2023-07-29T06:10:00;5.8;5.0;
49686;PMS5003;36064;38.180;-122.272;2023-07-29T06:15:00;4.4;4.4;
49686;PMS5003;36064;38.180;-122.272;2023-07-29T06:20:01;5.4;4.0;
49686;PMS5003;36064;38.180;-122.272;2023-07-29T06:25:00;3.8;3.4;
49686;PMS5003;36064;38.180;-122.272;2023-07-29T06:30:00;5.8;4.2;
49686;PMS5003;36064;38.180;-122.272;2023-07-29T06:35:00;4.0;3.6;
49686;PMS5003;36064;38.180;-122.272;2023-07-29T06:40:00;6.4;5.0;
49686;PMS5003;36064;38.180;-122.272;2023-07-29T06:45:00;5.4;5.0;
49686;PMS5003;36064;38.180;-122.272;2023-07-29T06:50:00;4.8;4.4;
49686;PMS5003;36064;38.180;-122.272;2023-07-29T06:55:00;4.2;3.8;
49686;PMS5003;36064;38.180;-122.272;2023-07-29T07:00:00;3.8;3.6;
49686;PMS5003;36064;38.180;-122.272;2023-07-29T07:05:00;5.2;4.4;
49686;PMS5003;36064;38.180;-122.272;2023-07-29T07:10:00;4.0;4.0;
49686;PMS5003;36064;38.180;-122.272;2023-07-29T07:15:00;7.0;6.2;
49686;PMS5003;36064;38.180;-122.272;2023-07-29T07:20:00;6.0;4.8;
49686;PMS5003;36064;38.180;-122.272;2023-07-29T07:25:00;7.0;5.6;
49686;PMS5003;36064;38.180;-122.272;2023-07-29T07:30:00;4.8;4.0;
49686;PMS5003;36064;38.180;-122.272;2023-07-29T07:35:00;5.6;3.6;
49686;PMS5003;36064;38.180;-122.272;2023-07-29T07:40:00;9.0;7.0;
49686;PMS5003;36064;38.180;-122.272;2023-07-29T07:45:00;9.0;7.0;
49686;PMS5003;36064;38.180;-122.272;2023-07-29T07:50:00;6.2;4.0;
49686;PMS5003;36064;38.180;-122.272;2023-07-29T07:55:00;6.2;5.0;
49686;PMS5003;36064;38.180;-122.272;2023-07-29T08:00:00;6.2;6.0;
49686;PMS5003;36064;38.180;-122.272;2023-07-29T08:05:01;6.2;5.4;
49686;PMS5003;36064;38.180;-122.272;2023-07-29T08:10:00;4.8;4.4;
49686;PMS5003;36064;38.180;-122.272;2023-07-29T08:15:00;5.4;4.4;
49686;PMS5003;36064;38.180;-122.272;2023-07-29T08:20:00;6.4;6.0;
49686;PMS5003;36064;38.180;-122.272;2023-07-29T08:25:00;6.2;5.4;
49686;PMS5003;36064;38.180;-122.272;2023-07-29T08:30:00;6.8;6.4;
49686;PMS5003;36064;38.180;-122.272;2023-07-29T08:35:00;6.2;5.2;
49686;PMS5003;36064;38.180;-122.272;2023-07-29T08:40:00;7.0;5.4;
49686;PMS5003;36064;38.180;-122.272;2023-07-29T08:45:01;8.6;8.0;
49686;PMS5003;36064;38.180;-122.272;2023-07-29T08:50:01;7.2;5.4;
49686;PMS5003;36064;38.180;-122.272;2023-07-29T08:55:00;5.8;5.0;
49686;PMS5003;36064;38.180;-122.272;2023-07-29T09:00:01;6.2;5.4;
49686;PMS5003;36064;38.180;-122.272;2023-07-29T09:05:01;5.4;4.4;
49686;PMS5003;36064;38.180;-122.272;2023-07-29T09:10:00;5.2;5.8;
49686;PMS5003;36064;38.180;-122.272;2023-07-29T09:15:00;6.0;4.8;
49686;PMS5003;36064;38.180;-122.272;2023-07-29T09:20:00;7.0;6.8;
49686;PMS5003;36064;38.180;-122.272;2023-07-29T09:25:00;6.0;6.0;
49686;PMS5003;36064;38.180;-122.272;2023-07-29T09:30:00;5.6;4.6;
49686;PMS5003;36064;38.180;-122.272;2023-07-29T09:35:00;6.0;5.0;
49686;PMS5003;36064;38.180;-122.272;2023-07-29T09:40:00;5.6;5.4;
49686;PMS5003;36064;38.180;-122.272;2023-07-29T09:45:00;5.6;5.6;
49686;PMS5003;36064;38.180;-122.272;2023-07-29T09:50:00;5.0;5.0;
49686;PMS5003;36064;38.180;-122.272;2023-07-29T09:55:00;5.8;6.2;
49686;PMS5003;36064;38.180;-122.272;2023-07-29T10:00:00;6.4;4.4;
49686;PMS5003;36064;38.180;-122.272;2023-07-29T10:05:01;4.8;3.8;
49686;PMS5003;36064;38.180;-122.272;2023-07-29T10:10:00;6.0;4.8;
49686;PMS5003;36064;38.180;-122.272;2023-07-29T10:15:02;6.4;5.8;
49686;PMS5003;36064;38.180;-122.272;2023-07-29T10:20:00;6.0;5.8;
49686;PMS5003;36064;38.180;-122.272;2023-07-29T10:25:02;5.2;3.6;
49686;PMS5003;36064;38.180;-122.272;2023-07-29T10:30:00;4.0;3.6;
49686;PMS5003;36064;38.180;-122.272;2023-07-29T10:35:00;4.6;4.6;
49686;PMS5003;36064;38.180;-122.272;2023-07-29T10:40:00;5.6;5.0;
49686;PMS5003;36064;38.180;-122.272;2023-07-29T10:45:02;6.2;4.4;
49686;PMS5003;36064;38.180;-122.272;2023-07-29T10:50:00;9.2;8.8;
49686;PMS5003;36064;38.180;-122.272;2023-07-29T10:55:00;5.8;5.8;
49686;PMS5003;36064;38.180;-122.272;2023-07-29T11:00:00;5.4;5.0;
49686;PMS5003;36064;38.180;-122.272;2023-07-29T11:05:05;5.0;5.0;
49686;PMS5003;36064;38.180;-122.272;2023-07-29T11:10:02;6.0;5.0;
49686;PMS5003;36064;38.180;-122.272;2023-07-29T11:15:01;6.0;5.2;
49686;PMS5003;36064;38.180;-122.272;2023-07-29T11:20:01;6.6;6.8;
49686;PMS5003;36064;38.180;-122.272;2023-07-29T11:25:00;8.2;7.8;
49686;PMS5003;36064;38.180;-122.272;2023-07-29T11:30:01;6.0;5.2;
49686;PMS5003;36064;38.180;-122.272;2023-07-29T11:35:02;6.2;5.6;
49686;PMS5003;36064;38.180;-122.272;2023-07-29T11:40:00;5.4;5.4;
49686;PMS5003;36064;38.180;-122.272;2023-07-29T11:45:00;5.8;5.8;
49686;PMS5003;36064;38.180;-122.272;2023-07-29T11:50:01;5.2;5.2;
49686;PMS5003;36064;38.180;-122.272;2023-07-29T11:55:00;5.2;5.2;
49686;PMS5003;36064;38.180;-122.272;2023-07-29T12:00:01;8.0;7.2;
49686;PMS5003;36064;38.180;-122.272;2023-07-29T12:05:00;6.6;5.4;
49686;PMS5003;36064;38.180;-122.272;2023-07-29T12:10:00;6.8;6.0;
49686;PMS5003;36064;38.180;-122.272;2023-07-29T12:15:00;8.4;7.0;
49686;PMS5003;36064;38.180;-122.272;2023-07-29T12:20:00;8.6;8.6;
49686;PMS5003;36064;38.180;-122.272;2023-07-29T12:25:00;7.8;7.0;
49686;PMS5003;36064;38.180;-122.272;2023-07-29T12:30:01;9.8;9.8;
49686;PMS5003;36064;38.180;-122.272;2023-07-29T12:35:00;8.2;7.4;
49686;PMS5003;36064;38.180;-122.272;2023-07-29T12:40:00;9.8;8.2;
49686;PMS5003;36064;38.180;-122.272;2023-07-29T12:45:00;11.0;10.4;
49686;PMS5003;36064;38.180;-122.272;2023-07-29T12:50:00;9.8;9.4;
49686;PMS5003;36064;38.180;-122.272;2023-07-29T12:55:00;9.0;8.6;
49686;PMS5003;36064;38.180;-122.272;2023-07-29T13:00:00;10.6;10.0;
49686;PMS5003;36064;38.180;-122.272;2023-07-29T13:05:00;7.6;7.6;
49686;PMS5003;36064;38.180;-122.272;2023-07-29T13:10:00;10.2;10.2;
49686;PMS5003;36064;38.180;-122.272;2023-07-29T13:15:00;11.0;11.0;
49686;PMS5003;36064;38.180;-122.272;2023-07-29T13:20:00;10.8;10.4;
49686;PMS5003;36064;38.180;-122.272;2023-07-29T13:25:00;10.8;9.6;
49686;PMS5003;36064;38.180;-122.272;2023-07-29T13:30:00;9.8;9.6;
49686;PMS5003;36064;38.180;-122.272;2023-07-29T13:35:00;12.6;11.0;
49686;PMS5003;36064;38.180;-122.272;2023-07-29T13:40:00;12.8;12.8;
49686;PMS5003;36064;38.180;-122.272;2023-07-29T13:45:00;13.8;13.8;
49686;PMS5003;36064;38.180;-122.272;2023-07-29T13:50:01;10.0;9.2;
49686;PMS5003;36064;38.180;-122.272;2023-07-29T13:55:00;10.2;9.6;
49686;PMS5003;36064;38.180;-122.272;2023-07-29T14:00:00;10.8;10.6;
49686;PMS5003;36064;38.180;-122.272;2023-07-29T14:05:01;10.2;9.6;
49686;PMS5003;36064;38.180;-122.272;2023-07-29T14:10:00;10.6;10.6;
49686;PMS5003;36064;38.180;-122.272;2023-07-29T14:15:00;10.0;10.0;
49686;PMS5003;36064;38.180;-122.272;2023-07-29T14:20:01;6.8;6.4;
49686;PMS5003;36064;38.180;-122.272;2023-07-29T14:25:00;6.4;5.8;
49686;PMS5003;36064;38.180;-122.272;2023-07-29T14:30:00;7.8;7.0;
49686;PMS5003;36064;38.180;-122.272;2023-07-29T14:35:00;7.6;6.6;
49686;PMS5003;36064;38.180;-122.272;2023-07-29T14:40:00;9.2;8.6;
49686;PMS5003;36064;38.180;-122.272;2023-07-29T14:45:00;7.0;6.0;
49686;PMS5003;36064;38.180;-122.272;2023-07-29T14:50:00;7.8;8.0;
49686;PMS5003;36064;38.180;-122.272;2023-07-29T14:55:00;9.4;7.6;
49686;PMS5003;36064;38.180;-122.272;2023-07-29T15:00:00;7.0;6.4;
49686;PMS5003;36064;38.180;-122.272;2023-07-29T15:05:00;7.0;6.4;
49686;PMS5003;36064;38.180;-122.272;2023-07-29T15:10:00;8.2;8.2;
49686;PMS5003;36064;38.180;-122.272;2023-07-29T15:15:00;8.2;8.2;
49686;PMS5003;36064;38.180;-122.272;2023-07-29T15:20:01;6.6;7.0;
49686;PMS5003;36064;38.180;-122.272;2023-07-29T15:25:00;6.6;7.0;
49686;PMS5003;36064;38.180;-122.272;2023-07-29T15:30:00;7.2;6.4;
49686;PMS5003;36064;38.180;-122.272;2023-07-29T15:35:00;9.4;7.8;
49686;PMS5003;36064;38.180;-122.272;2023-07-29T15:40:00;6.6;6.4;
49686;PMS5003;36064;38.180;-122.272;2023-07-29T15:45:00;10.8;10.0;
49686;PMS5003;36064;38.180;-122.272;2023-07-29T15:50:00;9.6;9.2;
49686;PMS5003;36064;38.180;-122.272;2023-07-29T15:55:00;10.8;10.0;
49686;PMS5003;36064;38.180;-122.272;2023-07-29T16:00:00;9.0;7.6;
49686;PMS5003;36064;38.180;-122.272;2023-07-29T16:05:00;8.4;7.2;
49686;PMS5003;36064;38.180;-122.272;2023-07-29T16:10:00;6.8;6.6;
49686;PMS5003;36064;38.180;-122.272;2023-07-29T16:15:00;6.6;6.6;
49686;PMS5003;36064;38.180;-122.272;2023-07-29T16:20:01;8.2;7.8;
49686;PMS5003;36064;38.180;-122.272;2023-07-29T16:25:00;6.6;6.6;
49686;PMS5003;36064;38.180;-122.272;2023-07-29T16:30:01;7.0;6.2;
49686;PMS5003;36064;38.180;-122.272;2023-07-29T16:35:00;7.0;6.4;
49686;PMS5003;36064;38.180;-122.272;2023-07-29T16:40:00;6.8;6.4;
49686;PMS5003;36064;38.180;-122.272;2023-07-29T16:45:00;7.8;6.4;
49686;PMS5003;36064;38.180;-122.272;2023-07-29T16:50:00;8.2;6.6;
49686;PMS5003;36064;38.180;-122.272;2023-07-29T16:55:00;8.2;6.8;
49686;PMS5003;36064;38.180;-122.272;2023-07-29T17:00:00;6.6;6.4;
49686;PMS5003;36064;38.180;-122.272;2023-07-29T17:05:01;7.4;7.4;
49686;PMS5003;36064;38.180;-122.272;2023-07-29T17:10:00;5.0;5.0;
49686;PMS5003;36064;38.180;-122.272;2023-07-29T17:15:00;7.4;7.0;
49686;PMS5003;36064;38.180;-122.272;2023-07-29T17:20:00;6.4;5.6;
49686;PMS5003;36064;38.180;-122.272;2023-07-29T17:25:00;6.0;6.6;
49686;PMS5003;36064;38.180;-122.272;2023-07-29T17:30:00;6.0;5.8;
49686;PMS5003;36064;38.180;-122.272;2023-07-29T17:35:00;8.0;8.0;
49686;PMS5003;36064;38.180;-122.272;2023-07-29T17:40:00;6.6;5.8;
49686;PMS5003;36064;38.180;-122.272;2023-07-29T17:45:00;6.2;5.8;
49686;PMS5003;36064;38.180;-122.272;2023-07-29T17:50:00;6.2;6.2;
49686;PMS5003;36064;38.180;-122.272;2023-07-29T17:55:00;7.23;6.81;
49686;PMS5003;36064;38.180;-122.272;2023-07-29T18:00:00;8.4;7.4;
49686;PMS5003;36064;38.180;-122.272;2023-07-29T18:05:00;6.0;6.0;
49686;PMS5003;36064;38.180;-122.272;2023-07-29T18:10:00;6.0;5.6;
49686;PMS5003;36064;38.180;-122.272;2023-07-29T18:15:00;7.0;6.2;
49686;PMS5003;36064;38.180;-122.272;2023-07-29T18:20:01;7.8;7.6;
49686;PMS5003;36064;38.180;-122.272;2023-07-29T18:25:00;10.2;9.8;
49686;PMS5003;36064;38.180;-122.272;2023-07-29T18:30:00;6.6;6.2;
49686;PMS5003;36064;38.180;-122.272;2023-07-29T18:35:00;11.0;9.6;
49686;PMS5003;36064;38.180;-122.272;2023-07-29T18:40:00;7.4;6.0;
49686;PMS5003;36064;38.180;-122.272;2023-07-29T18:45:00;7.4;6.2;
49686;PMS5003;36064;38.180;-122.272;2023-07-29T18:50:00;8.6;7.4;
49686;PMS5003;36064;38.180;-122.272;2023-07-29T18:55:00;7.0;6.0;
49686;PMS5003;36064;38.180;-122.272;2023-07-29T19:00:00;6.8;6.8;
49686;PMS5003;36064;38.180;-122.272;2023-07-29T19:05:00;6.0;6.0;
49686;PMS5003;36064;38.180;-122.272;2023-07-29T19:10:00;7.0;6.4;
49686;PMS5003;36064;38.180;-122.272;2023-07-29T19:15:00;7.4;7.4;
49686;PMS5003;36064;38.180;-122.272;2023-07-29T19:20:00;7.6;7.2;
49686;PMS5003;36064;38.180;-122.272;2023-07-29T19:25:00;10.6;9.8;
49686;PMS5003;36064;38.180;-122.272;2023-07-29T19:30:00;10.2;10.8;
49686;PMS5003;36064;38.180;-122.272;2023-07-29T19:35:00;8.0;7.4;
49686;PMS5003;36064;38.180;-122.272;2023-07-29T19:40:00;9.2;8.4;
49686;PMS5003;36064;38.180;-122.272;2023-07-29T19:45:00;8.8;7.8;
49686;PMS5003;36064;38.180;-122.272;2023-07-29T19:50:00;7.6;8.2;
49686;PMS5003;36064;38.180;-122.272;2023-07-29T19:55:00;8.0;7.2;
49686;PMS5003;36064;38.180;-122.272;2023-07-29T20:00:00;7.2;7.2;
49686;PMS5003;36064;38.180;-122.272;2023-07-29T20:05:00;7.2;7.2;
49686;PMS5003;36064;38.180;-122.272;2023-07-29T20:10:00;8.4;8.0;
49686;PMS5003;36064;38.180;-122.272;2023-07-29T20:15:00;7.2;7.0;
49686;PMS5003;36064;38.180;-122.272;2023-07-29T20:20:01;7.4;6.2;
49686;PMS5003;36064;38.180;-122.272;2023-07-29T20:25:00;7.0;6.4;
49686;PMS5003;36064;38.180;-122.272;2023-07-29T20:30:01;7.6;7.2;
49686;PMS5003;36064;38.180;-122.272;2023-07-29T20:35:00;7.6;7.4;
49686;PMS5003;36064;38.180;-122.272;2023-07-29T20:40:00;7.8;6.2;
49686;PMS5003;36064;38.180;-122.272;2023-07-29T20:45:01;7.8;7.0;
49686;PMS5003;36064;38.180;-122.272;2023-07-29T20:50:00;8.0;6.4;
49686;PMS5003;36064;38.180;-122.272;2023-07-29T20:55:00;7.0;7.0;
49686;PMS5003;36064;38.180;-122.272;2023-07-29T21:00:00;6.4;5.8;
49686;PMS5003;36064;38.180;-122.272;2023-07-29T21:05:00;6.6;5.8;
49686;PMS5003;36064;38.180;-122.272;2023-07-29T21:10:00;6.2;6.0;
49686;PMS5003;36064;38.180;-122.272;2023-07-29T21:15:00;7.0;7.0;
49686;PMS5003;36064;38.180;-122.272;2023-07-29T21:20:00;8.0;6.8;
49686;PMS5003;36064;38.180;-122.272;2023-07-29T21:25:00;7.0;6.8;
49686;PMS5003;36064;38.180;-122.272;2023-07-29T21:30:00;7.2;7.2;
49686;PMS5003;36064;38.180;-122.272;2023-07-29T21:35:01;7.6;7.6;
49686;PMS5003;36064;38.180;-122.272;2023-07-29T21:40:00;7.0;6.4;
49686;PMS5003;36064;38.180;-122.272;2023-07-29T21:45:00;7.0;5.8;
49686;PMS5003;36064;38.180;-122.272;2023-07-29T21:50:00;7.2;6.4;
49686;PMS5003;36064;38.180;-122.272;2023-07-29T21:55:00;10.6;9.0;
49686;PMS5003;36064;38.180;-122.272;2023-07-29T22:00:00;8.2;7.4;
49686;PMS5003;36064;38.180;-122.272;2023-07-29T22:05:00;9.0;8.0;
49686;PMS5003;36064;38.180;-122.272;2023-07-29T22:10:00;8.4;7.6;
49686;PMS5003;36064;38.180;-122.272;2023-07-29T22:15:00;8.6;7.0;
49686;PMS5003;36064;38.180;-122.272;2023-07-29T22:20:00;8.6;8.6;
49686;PMS5003;36064;38.180;-122.272;2023-07-29T22:25:00;8.6;7.4;
49686;PMS5003;36064;38.180;-122.272;2023-07-29T22:30:00;6.6;6.6;
49686;PMS5003;36064;38.180;-122.272;2023-07-29T22:35:00;7.6;7.6;
49686;PMS5003;36064;38.180;-122.272;2023-07-29T22:40:00;7.6;6.4;
49686;PMS5003;36064;38.180;-122.272;2023-07-29T22:45:00;8.4;7.2;
49686;PMS5003;36064;38.180;-122.272;2023-07-29T22:50:00;9.0;8.6;
49686;PMS5003;36064;38.180;-122.272;2023-07-29T22:55:00;7.2;7.2;
49686;PMS5003;36064;38.180;-122.272;2023-07-29T23:00:00;7.8;7.4;
49686;PMS5003;36064;38.180;-122.272;2023-07-29T23:05:00;9.2;8.8;
49686;PMS5003;36064;38.180;-122.272;2023-07-29T23:10:00;8.0;7.6;
49686;PMS5003;36064;38.180;-122.272;2023-07-29T23:15:00;8.4;8.2;
49686;PMS5003;36064;38.180;-122.272;2023-07-29T23:20:01;8.6;7.2;
49686;PMS5003;36064;38.180;-122.272;2023-07-29T23:25:00;6.8;6.6;
49686;PMS5003;36064;38.180;-122.272;2023-07-29T23:30:00;10.8;10.8;
49686;PMS5003;36064;38.180;-122.272;2023-07-29T23:35:00;8.6;8.6;
49686;PMS5003;36064;38.180;-122.272;2023-07-29T23:40:00;10.0;9.6;
49686;PMS5003;36064;38.180;-122.272;2023-07-29T23:45:00;11.0;10.6;
49686;PMS5003;36064;38.180;-122.272;2023-07-29T23:50:00;8.4;7.2;
49686;PMS5003;36064;38.180;-122.272;2023-07-29T23:55:00;8.8;7.2;
